sensor_id;sensor_type;location;lat;lon;timestamp;pressure;altitude;pressure_sealevel;temperature;humidity
67038;BME280;53940;53.204;6.590;2024-02-04T00:00:44;101949.88;;;22.12;48.72
67038;BME280;53940;53.204;6.590;2024-02-04T00:03:45;101950.84;;;22.11;49.05
67038;BME280;53940;53.204;6.590;2024-02-04T00:06:45;101952.66;;;22.10;48.91
67038;BME280;53940;53.204;6.590;2024-02-04T00:09:45;101945.59;;;22.09;49.05
67038;BME280;53940;53.204;6.590;2024-02-04T00:12:46;101938.53;;;22.08;48.99
67038;BME280;53940;53.204;6.590;2024-02-04T00:15:46;101939.47;;;22.07;49.00
67038;BME280;53940;53.204;6.590;2024-02-04T00:18:47;101942.16;;;22.07;49.14
67038;BME280;53940;53.204;6.590;2024-02-04T00:21:47;101940.47;;;22.06;49.26
67038;BME280;53940;53.204;6.590;2024-02-04T00:24:48;101940.59;;;22.04;49.32
67038;BME280;53940;53.204;6.590;2024-02-04T00:27:48;101942.31;;;22.05;49.18
67038;BME280;53940;53.204;6.590;2024-02-04T00:30:48;101954.97;;;22.03;49.15
67038;BME280;53940;53.204;6.590;2024-02-04T00:33:50;101962.19;;;22.03;49.15
67038;BME280;53940;53.204;6.590;2024-02-04T00:36:50;101972.94;;;22.03;49.24
67038;BME280;53940;53.204;6.590;2024-02-04T00:39:50;101978.31;;;22.03;49.17
67038;BME280;53940;53.204;6.590;2024-02-04T00:42:51;101978.31;;;22.03;49.35
67038;BME280;53940;53.204;6.590;2024-02-04T00:45:51;101982.81;;;22.02;49.16
67038;BME280;53940;53.204;6.590;2024-02-04T00:48:52;101976.59;;;22.02;49.18
67038;BME280;53940;53.204;6.590;2024-02-04T00:51:53;101981.97;;;22.02;48.99
67038;BME280;53940;53.204;6.590;2024-02-04T00:54:53;101965.84;;;22.02;49.08
67038;BME280;53940;53.204;6.590;2024-02-04T00:57:54;101958.75;;;22.01;49.03
67038;BME280;53940;53.204;6.590;2024-02-04T01:00:55;101957.81;;;22.02;48.96
67038;BME280;53940;53.204;6.590;2024-02-04T01:03:56;101949.75;;;22.02;48.82
67038;BME280;53940;53.204;6.590;2024-02-04T01:06:56;101945.22;;;22.02;48.92
67038;BME280;53940;53.204;6.590;2024-02-04T01:09:56;101939.03;;;22.02;48.73
67038;BME280;53940;53.204;6.590;2024-02-04T01:12:57;101938.03;;;22.03;48.92
67038;BME280;53940;53.204;6.590;2024-02-04T01:15:57;101941.56;;;22.03;48.98
67038;BME280;53940;53.204;6.590;2024-02-04T01:18:58;101940.72;;;22.03;48.66
67038;BME280;53940;53.204;6.590;2024-02-04T01:21:58;101939.75;;;22.04;48.62
67038;BME280;53940;53.204;6.590;2024-02-04T01:24:58;101938.75;;;22.05;48.79
67038;BME280;53940;53.204;6.590;2024-02-04T01:27:58;101937.78;;;22.06;48.76
67038;BME280;53940;53.204;6.590;2024-02-04T01:30:59;101926.06;;;22.07;48.60
67038;BME280;53940;53.204;6.590;2024-02-04T01:33:59;101930.47;;;22.08;48.74
67038;BME280;53940;53.204;6.590;2024-02-04T01:37:00;101926.94;;;22.07;48.66
67038;BME280;53940;53.204;6.590;2024-02-04T01:40:00;101946.31;;;22.11;48.58
67038;BME280;53940;53.204;6.590;2024-02-04T01:43:00;101949.00;;;22.11;48.65
67038;BME280;53940;53.204;6.590;2024-02-04T01:46:01;101941.66;;;22.13;48.73
67038;BME280;53940;53.204;6.590;2024-02-04T01:49:02;101928.13;;;22.15;48.59
67038;BME280;53940;53.204;6.590;2024-02-04T01:52:02;101925.34;;;22.16;48.51
67038;BME280;53940;53.204;6.590;2024-02-04T01:55:05;101916.41;;;22.16;48.73
67038;BME280;53940;53.204;6.590;2024-02-04T01:58:06;101920.69;;;22.18;48.48
67038;BME280;53940;53.204;6.590;2024-02-04T02:01:06;101909.81;;;22.20;48.52
67038;BME280;53940;53.204;6.590;2024-02-04T02:04:07;101904.34;;;22.21;48.29
67038;BME280;53940;53.204;6.590;2024-02-04T02:07:08;101898.84;;;22.23;48.67
67038;BME280;53940;53.204;6.590;2024-02-04T02:10:09;101906.75;;;22.25;48.40
67038;BME280;53940;53.204;6.590;2024-02-04T02:13:37;101909.34;;;22.26;48.50
67038;BME280;53940;53.204;6.590;2024-02-04T02:16:39;101900.28;;;22.27;48.35
67038;BME280;53940;53.204;6.590;2024-02-04T02:20:12;101894.81;;;22.29;48.20
67038;BME280;53940;53.204;6.590;2024-02-04T02:23:21;101888.44;;;22.30;48.27
67038;BME280;53940;53.204;6.590;2024-02-04T02:26:22;101895.53;;;22.31;48.41
67038;BME280;53940;53.204;6.590;2024-02-04T02:29:23;101898.97;;;22.33;48.26
67038;BME280;53940;53.204;6.590;2024-02-04T02:32:24;101893.44;;;22.34;48.15
67038;BME280;53940;53.204;6.590;2024-02-04T02:35:24;101888.94;;;22.35;48.32
67038;BME280;53940;53.204;6.590;2024-02-04T02:38:31;101899.56;;;22.37;47.99
67038;BME280;53940;53.204;6.590;2024-02-04T02:41:34;101891.50;;;22.37;48.07
67038;BME280;53940;53.204;6.590;2024-02-04T02:44:38;101903.81;;;22.39;47.93
67038;BME280;53940;53.204;6.590;2024-02-04T02:47:40;101895.78;;;22.39;47.96
67038;BME280;53940;53.204;6.590;2024-02-04T02:50:41;101891.13;;;22.41;48.21
67038;BME280;53940;53.204;6.590;2024-02-04T02:53:42;101897.34;;;22.42;47.85
67038;BME280;53940;53.204;6.590;2024-02-04T02:56:42;101883.78;;;22.43;47.84
67038;BME280;53940;53.204;6.590;2024-02-04T02:59:42;101874.88;;;22.43;48.08
67038;BME280;53940;53.204;6.590;2024-02-04T03:02:43;101873.91;;;22.44;47.96
67038;BME280;53940;53.204;6.590;2024-02-04T03:05:43;101869.38;;;22.44;47.75
67038;BME280;53940;53.204;6.590;2024-02-04T03:08:44;101860.34;;;22.45;47.69
67038;BME280;53940;53.204;6.590;2024-02-04T03:11:44;101869.25;;;22.46;47.89
67038;BME280;53940;53.204;6.590;2024-02-04T03:14:46;101880.84;;;22.46;47.71
67038;BME280;53940;53.204;6.590;2024-02-04T03:17:46;101881.69;;;22.47;47.80
67038;BME280;53940;53.204;6.590;2024-02-04T03:20:46;101897.81;;;22.47;47.86
67038;BME280;53940;53.204;6.590;2024-02-04T03:23:47;101898.66;;;22.47;47.73
67038;BME280;53940;53.204;6.590;2024-02-04T03:26:47;101892.31;;;22.48;47.56
67038;BME280;53940;53.204;6.590;2024-02-04T03:29:47;101881.56;;;22.48;47.94
67038;BME280;53940;53.204;6.590;2024-02-04T03:32:48;101870.81;;;22.48;47.80
67038;BME280;53940;53.204;6.590;2024-02-04T03:35:48;101876.91;;;22.51;47.76
67038;BME280;53940;53.204;6.590;2024-02-04T03:38:50;101890.34;;;22.51;47.45
67038;BME280;53940;53.204;6.590;2024-02-04T03:41:50;101888.66;;;22.49;47.50
67038;BME280;53940;53.204;6.590;2024-02-04T03:44:50;101874.22;;;22.51;47.62
67038;BME280;53940;53.204;6.590;2024-02-04T03:47:51;101881.44;;;22.50;47.70
67038;BME280;53940;53.204;6.590;2024-02-04T03:50:51;101884.97;;;22.51;47.70
67038;BME280;53940;53.204;6.590;2024-02-04T03:53:51;101871.53;;;22.51;47.67
67038;BME280;53940;53.204;6.590;2024-02-04T03:56:52;101884.97;;;22.51;47.51
67038;BME280;53940;53.204;6.590;2024-02-04T03:59:52;101868.84;;;22.51;47.72
67038;BME280;53940;53.204;6.590;2024-02-04T04:02:53;101868.84;;;22.51;47.65
67038;BME280;53940;53.204;6.590;2024-02-04T04:05:53;101853.59;;;22.51;47.62
67038;BME280;53940;53.204;6.590;2024-02-04T04:08:54;101862.78;;;22.48;47.67
67038;BME280;53940;53.204;6.590;2024-02-04T04:11:54;101860.78;;;22.51;47.48
67038;BME280;53940;53.204;6.590;2024-02-04T04:14:55;101851.03;;;22.49;47.51
67038;BME280;53940;53.204;6.590;2024-02-04T04:17:55;101858.97;;;22.51;47.58
67038;BME280;53940;53.204;6.590;2024-02-04T04:20:56;101858.25;;;22.49;47.60
67038;BME280;53940;53.204;6.590;2024-02-04T04:23:56;101862.66;;;22.50;47.64
67038;BME280;53940;53.204;6.590;2024-02-04T04:26:56;101866.31;;;22.49;47.58
67038;BME280;53940;53.204;6.590;2024-02-04T04:29:57;101860.09;;;22.48;47.66
67038;BME280;53940;53.204;6.590;2024-02-04T04:32:57;101856.41;;;22.49;47.52
67038;BME280;53940;53.204;6.590;2024-02-04T04:35:59;101857.41;;;22.48;47.46
67038;BME280;53940;53.204;6.590;2024-02-04T04:38:59;101835.19;;;22.46;47.52
67038;BME280;53940;53.204;6.590;2024-02-04T04:41:59;101832.38;;;22.48;47.49
67038;BME280;53940;53.204;6.590;2024-02-04T04:45:00;101840.56;;;22.46;47.57
67038;BME280;53940;53.204;6.590;2024-02-04T04:48:00;101823.59;;;22.46;47.42
67038;BME280;53940;53.204;6.590;2024-02-04T04:51:00;101821.75;;;22.46;47.67
67038;BME280;53940;53.204;6.590;2024-02-04T04:54:01;101835.19;;;22.46;47.48
67038;BME280;53940;53.204;6.590;2024-02-04T04:57:01;101811.03;;;22.46;47.54
67038;BME280;53940;53.204;6.590;2024-02-04T05:00:01;101821.88;;;22.45;47.35
67038;BME280;53940;53.204;6.590;2024-02-04T05:03:06;101816.50;;;22.45;47.45
67038;BME280;53940;53.204;6.590;2024-02-04T05:06:07;101805.78;;;22.45;47.37
67038;BME280;53940;53.204;6.590;2024-02-04T05:09:07;101786.09;;;22.44;47.50
67038;BME280;53940;53.204;6.590;2024-02-04T05:12:08;101804.91;;;22.44;47.83
67038;BME280;53940;53.204;6.590;2024-02-04T05:15:09;101797.84;;;22.43;47.47
67038;BME280;53940;53.204;6.590;2024-02-04T05:18:09;101797.84;;;22.43;47.66
67038;BME280;53940;53.204;6.590;2024-02-04T05:21:09;101782.59;;;22.44;47.49
67038;BME280;53940;53.204;6.590;2024-02-04T05:24:10;101783.69;;;22.41;47.53
67038;BME280;53940;53.204;6.590;2024-02-04T05:27:10;101787.25;;;22.42;47.59
67038;BME280;53940;53.204;6.590;2024-02-04T05:30:12;101790.88;;;22.41;47.71
67038;BME280;53940;53.204;6.590;2024-02-04T05:33:15;101808.84;;;22.40;47.51
67038;BME280;53940;53.204;6.590;2024-02-04T05:36:16;101803.47;;;22.40;47.37
67038;BME280;53940;53.204;6.590;2024-02-04T05:39:16;101793.72;;;22.39;47.56
67038;BME280;53940;53.204;6.590;2024-02-04T05:42:17;101792.72;;;22.40;47.57
67038;BME280;53940;53.204;6.590;2024-02-04T05:45:17;101805.41;;;22.38;47.70
67038;BME280;53940;53.204;6.590;2024-02-04T05:48:17;101789.31;;;22.38;47.59
67038;BME280;53940;53.204;6.590;2024-02-04T05:51:18;101794.66;;;22.38;47.50
67038;BME280;53940;53.204;6.590;2024-02-04T05:54:18;101782.22;;;22.37;47.60
67038;BME280;53940;53.204;6.590;2024-02-04T05:57:18;101789.44;;;22.37;47.60
67038;BME280;53940;53.204;6.590;2024-02-04T06:00:20;101781.41;;;22.37;47.67
67038;BME280;53940;53.204;6.590;2024-02-04T06:03:21;101773.47;;;22.35;47.65
67038;BME280;53940;53.204;6.590;2024-02-04T06:06:21;101771.75;;;22.34;47.62
67038;BME280;53940;53.204;6.590;2024-02-04T06:09:21;101790.56;;;22.34;47.84
67038;BME280;53940;53.204;6.590;2024-02-04T06:12:22;101771.75;;;22.34;47.69
67038;BME280;53940;53.204;6.590;2024-02-04T06:15:22;101765.66;;;22.32;47.63
67038;BME280;53940;53.204;6.590;2024-02-04T06:18:22;101774.56;;;22.32;47.59
67038;BME280;53940;53.204;6.590;2024-02-04T06:21:24;101768.34;;;22.32;47.41
67038;BME280;53940;53.204;6.590;2024-02-04T06:24:24;101781.75;;;22.32;47.56
67038;BME280;53940;53.204;6.590;2024-02-04T06:27:25;101780.06;;;22.31;47.89
67038;BME280;53940;53.204;6.590;2024-02-04T06:30:25;101765.81;;;22.30;47.63
67038;BME280;53940;53.204;6.590;2024-02-04T06:33:25;101749.81;;;22.29;47.73
67038;BME280;53940;53.204;6.590;2024-02-04T06:36:26;101761.41;;;22.29;47.67
67038;BME280;53940;53.204;6.590;2024-02-04T06:39:26;101759.56;;;22.30;47.56
67038;BME280;53940;53.204;6.590;2024-02-04T06:42:26;101746.13;;;22.30;47.83
67038;BME280;53940;53.204;6.590;2024-02-04T06:45:26;101748.00;;;22.29;47.62
67038;BME280;53940;53.204;6.590;2024-02-04T06:48:27;101749.53;;;22.32;47.54
67038;BME280;53940;53.204;6.590;2024-02-04T06:51:27;101770.19;;;22.31;47.98
67038;BME280;53940;53.204;6.590;2024-02-04T06:54:27;101766.63;;;22.31;47.71
67038;BME280;53940;53.204;6.590;2024-02-04T06:57:28;101762.00;;;22.33;47.82
67038;BME280;53940;53.204;6.590;2024-02-04T07:00:28;101764.81;;;22.31;47.93
67038;BME280;53940;53.204;6.590;2024-02-04T07:03:28;101753.94;;;22.33;47.97
67038;BME280;53940;53.204;6.590;2024-02-04T07:06:29;101745.03;;;22.32;47.98
67038;BME280;53940;53.204;6.590;2024-02-04T07:09:29;101726.22;;;22.32;47.85
67038;BME280;53940;53.204;6.590;2024-02-04T07:12:30;101721.72;;;22.33;48.05
67038;BME280;53940;53.204;6.590;2024-02-04T07:15:30;101711.81;;;22.33;47.93
67038;BME280;53940;53.204;6.590;2024-02-04T07:18:30;101717.31;;;22.32;48.12
67038;BME280;53940;53.204;6.590;2024-02-04T07:21:31;101719.03;;;22.33;48.00
67038;BME280;53940;53.204;6.590;2024-02-04T07:24:31;101721.72;;;22.33;48.19
67038;BME280;53940;53.204;6.590;2024-02-04T07:27:32;101721.72;;;22.33;48.13
67038;BME280;53940;53.204;6.590;2024-02-04T07:30:33;101721.72;;;22.33;48.17
67038;BME280;53940;53.204;6.590;2024-02-04T07:33:33;101728.78;;;22.34;48.28
67038;BME280;53940;53.204;6.590;2024-02-04T07:36:33;101715.50;;;22.32;48.15
67038;BME280;53940;53.204;6.590;2024-02-04T07:39:34;101720.84;;;22.32;48.27
67038;BME280;53940;53.204;6.590;2024-02-04T07:42:34;101729.91;;;22.31;47.60
67038;BME280;53940;53.204;6.590;2024-02-04T07:45:34;101721.97;;;22.30;47.41
67038;BME280;53940;53.204;6.590;2024-02-04T07:48:35;101728.31;;;22.29;47.38
67038;BME280;53940;53.204;6.590;2024-02-04T07:51:35;101735.50;;;22.28;47.56
67038;BME280;53940;53.204;6.590;2024-02-04T07:54:37;101734.69;;;22.28;47.80
67038;BME280;53940;53.204;6.590;2024-02-04T07:57:38;101742.84;;;22.26;48.10
67038;BME280;53940;53.204;6.590;2024-02-04T08:00:38;101734.91;;;22.25;48.13
67038;BME280;53940;53.204;6.590;2024-02-04T08:03:38;101732.25;;;22.25;48.02
67038;BME280;53940;53.204;6.590;2024-02-04T08:06:40;101734.91;;;22.25;47.81
67038;BME280;53940;53.204;6.590;2024-02-04T08:09:40;101733.22;;;22.24;47.97
67038;BME280;53940;53.204;6.590;2024-02-04T08:12:40;101723.47;;;22.23;47.95
67038;BME280;53940;53.204;6.590;2024-02-04T08:15:41;101724.47;;;22.21;48.32
67038;BME280;53940;53.204;6.590;2024-02-04T08:18:41;101725.28;;;22.22;48.15
67038;BME280;53940;53.204;6.590;2024-02-04T08:21:42;101713.72;;;22.21;47.88
67038;BME280;53940;53.204;6.590;2024-02-04T08:24:42;101719.09;;;22.21;48.06
67038;BME280;53940;53.204;6.590;2024-02-04T08:27:42;101708.34;;;22.21;47.98
67038;BME280;53940;53.204;6.590;2024-02-04T08:30:43;101713.72;;;22.21;47.90
67038;BME280;53940;53.204;6.590;2024-02-04T08:33:43;101719.09;;;22.21;48.11
67038;BME280;53940;53.204;6.590;2024-02-04T08:36:44;101722.75;;;22.20;48.26
67038;BME280;53940;53.204;6.590;2024-02-04T08:39:44;101724.47;;;22.21;48.16
67038;BME280;53940;53.204;6.590;2024-02-04T08:42:44;101737.88;;;22.21;48.39
67038;BME280;53940;53.204;6.590;2024-02-04T08:45:45;101723.47;;;22.23;48.46
67038;BME280;53940;53.204;6.590;2024-02-04T08:48:45;101740.44;;;22.23;48.63
67038;BME280;53940;53.204;6.590;2024-02-04T08:51:45;101728.72;;;22.24;48.50
67038;BME280;53940;53.204;6.590;2024-02-04T08:54:46;101727.84;;;22.24;48.54
67038;BME280;53940;53.204;6.590;2024-02-04T08:57:46;101734.91;;;22.25;48.64
67038;BME280;53940;53.204;6.590;2024-02-04T09:00:48;101721.66;;;22.23;48.39
67038;BME280;53940;53.204;6.590;2024-02-04T09:03:49;101740.56;;;22.21;48.54
67038;BME280;53940;53.204;6.590;2024-02-04T09:06:49;101728.13;;;22.20;48.63
67038;BME280;53940;53.204;6.590;2024-02-04T09:09:49;101725.56;;;22.19;48.76
67038;BME280;53940;53.204;6.590;2024-02-04T09:12:50;101725.56;;;22.19;48.63
67038;BME280;53940;53.204;6.590;2024-02-04T09:15:50;101727.25;;;22.20;48.73
67038;BME280;53940;53.204;6.590;2024-02-04T09:18:51;101737.88;;;22.21;48.74
67038;BME280;53940;53.204;6.590;2024-02-04T09:21:51;101742.25;;;22.23;48.73
67038;BME280;53940;53.204;6.590;2024-02-04T09:24:51;101746.66;;;22.24;48.89
67038;BME280;53940;53.204;6.590;2024-02-04T09:27:51;101734.91;;;22.25;48.75
67038;BME280;53940;53.204;6.590;2024-02-04T09:30:52;101723.34;;;22.24;48.81
67038;BME280;53940;53.204;6.590;2024-02-04T09:33:52;101725.16;;;22.24;48.74
67038;BME280;53940;53.204;6.590;2024-02-04T09:36:52;101709.06;;;22.24;48.85
67038;BME280;53940;53.204;6.590;2024-02-04T09:39:53;101717.13;;;22.24;48.91
67038;BME280;53940;53.204;6.590;2024-02-04T09:42:53;101740.28;;;22.25;48.91
67038;BME280;53940;53.204;6.590;2024-02-04T09:45:54;101729.56;;;22.25;48.79
67038;BME280;53940;53.204;6.590;2024-02-04T09:48:55;101738.59;;;22.24;48.73
67038;BME280;53940;53.204;6.590;2024-02-04T09:51:59;101748.50;;;22.23;48.97
67038;BME280;53940;53.204;6.590;2024-02-04T09:55:03;101746.78;;;22.22;49.09
67038;BME280;53940;53.204;6.590;2024-02-04T09:58:06;101731.53;;;22.23;49.08
67038;BME280;53940;53.204;6.590;2024-02-04T10:01:06;101724.47;;;22.21;49.08
67038;BME280;53940;53.204;6.590;2024-02-04T10:04:09;101730.94;;;22.19;48.95
67038;BME280;53940;53.204;6.590;2024-02-04T10:07:10;101717.63;;;22.17;49.49
67038;BME280;53940;53.204;6.590;2024-02-04T10:10:11;101715.06;;;22.16;49.33
67038;BME280;53940;53.204;6.590;2024-02-04T10:13:12;101709.84;;;22.14;49.44
67038;BME280;53940;53.204;6.590;2024-02-04T10:16:16;101707.16;;;22.14;49.38
67038;BME280;53940;53.204;6.590;2024-02-04T10:19:17;101705.44;;;22.13;49.32
67038;BME280;53940;53.204;6.590;2024-02-04T10:22:17;101709.84;;;22.14;49.63
67038;BME280;53940;53.204;6.590;2024-02-04T10:25:20;101717.03;;;22.14;49.71
67038;BME280;53940;53.204;6.590;2024-02-04T10:28:21;101728.75;;;22.13;49.67
67038;BME280;53940;53.204;6.590;2024-02-04T10:31:21;101730.59;;;22.12;49.67
67038;BME280;53940;53.204;6.590;2024-02-04T10:34:22;101733.25;;;22.12;49.91
67038;BME280;53940;53.204;6.590;2024-02-04T10:37:22;101730.59;;;22.12;49.80
67038;BME280;53940;53.204;6.590;2024-02-04T10:40:23;101723.50;;;22.11;49.72
67038;BME280;53940;53.204;6.590;2024-02-04T10:43:31;101730.72;;;22.11;49.81
67038;BME280;53940;53.204;6.590;2024-02-04T10:46:33;101727.19;;;22.10;49.80
67038;BME280;53940;53.204;6.590;2024-02-04T10:49:37;101722.78;;;22.09;49.89
67038;BME280;53940;53.204;6.590;2024-02-04T10:52:39;101720.22;;;22.07;50.22
67038;BME280;53940;53.204;6.590;2024-02-04T10:55:41;101721.94;;;22.08;50.15
67038;BME280;53940;53.204;6.590;2024-02-04T10:58:44;101713.16;;;22.06;50.04
67038;BME280;53940;53.204;6.590;2024-02-04T11:01:45;101722.06;;;22.07;50.19
67038;BME280;53940;53.204;6.590;2024-02-04T11:04:48;101723.91;;;22.06;49.92
67038;BME280;53940;53.204;6.590;2024-02-04T11:07:50;101722.06;;;22.07;50.05
67038;BME280;53940;53.204;6.590;2024-02-04T11:10:51;101724.03;;;22.05;50.33
67038;BME280;53940;53.204;6.590;2024-02-04T11:13:56;101724.03;;;22.05;50.46
67038;BME280;53940;53.204;6.590;2024-02-04T11:23:35;101715.25;;;22.03;50.35
67038;BME280;53940;53.204;6.590;2024-02-04T11:26:37;101702.94;;;22.00;50.47
67038;BME280;53940;53.204;6.590;2024-02-04T11:29:41;101700.97;;;22.02;50.17
67038;BME280;53940;53.204;6.590;2024-02-04T11:32:41;101698.41;;;22.01;49.63
67038;BME280;53940;53.204;6.590;2024-02-04T11:35:42;101693.03;;;22.01;49.94
67038;BME280;53940;53.204;6.590;2024-02-04T11:38:42;101700.38;;;21.99;50.15
67038;BME280;53940;53.204;6.590;2024-02-04T11:41:46;101692.31;;;21.99;50.08
67038;BME280;53940;53.204;6.590;2024-02-04T11:44:47;101684.28;;;21.99;50.03
67038;BME280;53940;53.204;6.590;2024-02-04T11:47:47;101686.97;;;21.99;49.91
67038;BME280;53940;53.204;6.590;2024-02-04T11:50:58;101676.22;;;21.99;49.88
67038;BME280;53940;53.204;6.590;2024-02-04T11:54:00;101685.25;;;21.98;49.88
67038;BME280;53940;53.204;6.590;2024-02-04T11:57:01;101689.63;;;21.99;49.88
67038;BME280;53940;53.204;6.590;2024-02-04T12:00:02;101688.94;;;21.97;49.81
67038;BME280;53940;53.204;6.590;2024-02-04T12:03:06;101668.28;;;21.97;49.76
67038;BME280;53940;53.204;6.590;2024-02-04T12:06:07;101671.13;;;21.96;49.91
67038;BME280;53940;53.204;6.590;2024-02-04T12:09:09;101681.84;;;21.96;49.84
67038;BME280;53940;53.204;6.590;2024-02-04T12:12:13;101680.13;;;21.94;49.89
67038;BME280;53940;53.204;6.590;2024-02-04T12:15:14;101672.06;;;21.94;49.86
67038;BME280;53940;53.204;6.590;2024-02-04T12:18:15;101677.44;;;21.94;49.93
67038;BME280;53940;53.204;6.590;2024-02-04T12:21:19;101669.41;;;21.94;49.84
67038;BME280;53940;53.204;6.590;2024-02-04T12:24:21;101673.94;;;21.94;49.82
67038;BME280;53940;53.204;6.590;2024-02-04T12:27:22;101672.22;;;21.93;49.83
67038;BME280;53940;53.204;6.590;2024-02-04T12:30:22;101667.69;;;21.93;49.66
67038;BME280;53940;53.204;6.590;2024-02-04T12:33:22;101678.44;;;21.93;49.91
67038;BME280;53940;53.204;6.590;2024-02-04T12:36:25;101675.75;;;21.93;49.87
67038;BME280;53940;53.204;6.590;2024-02-04T12:39:25;101672.06;;;21.94;49.80
67038;BME280;53940;53.204;6.590;2024-02-04T12:42:26;101674.75;;;21.94;50.20
67038;BME280;53940;53.204;6.590;2024-02-04T12:45:27;101670.38;;;21.93;50.09
67038;BME280;53940;53.204;6.590;2024-02-04T12:48:27;101667.69;;;21.93;49.92
67038;BME280;53940;53.204;6.590;2024-02-04T12:51:29;101670.38;;;21.93;50.03
67038;BME280;53940;53.204;6.590;2024-02-04T12:54:30;101656.97;;;21.93;50.19
67038;BME280;53940;53.204;6.590;2024-02-04T12:57:31;101646.22;;;21.93;50.25
67038;BME280;53940;53.204;6.590;2024-02-04T13:00:32;101646.22;;;21.93;50.26
67038;BME280;53940;53.204;6.590;2024-02-04T13:03:33;101640.84;;;21.93;50.27
67038;BME280;53940;53.204;6.590;2024-02-04T13:06:38;101630.13;;;21.93;50.14
67038;BME280;53940;53.204;6.590;2024-02-04T13:09:42;101640.03;;;21.93;49.92
67038;BME280;53940;53.204;6.590;2024-02-04T13:12:43;101630.00;;;21.95;50.06
67038;BME280;53940;53.204;6.590;2024-02-04T13:15:44;101631.81;;;21.94;50.32
67038;BME280;53940;53.204;6.590;2024-02-04T13:18:51;101631.00;;;21.94;50.21
67038;BME280;53940;53.204;6.590;2024-02-04T13:21:52;101620.97;;;21.96;50.18
67038;BME280;53940;53.204;6.590;2024-02-04T13:24:52;101610.81;;;22.00;50.45
67038;BME280;53940;53.204;6.590;2024-02-04T13:27:52;101602.78;;;22.00;50.24
67038;BME280;53940;53.204;6.590;2024-02-04T13:30:53;101611.56;;;22.02;50.42
67038;BME280;53940;53.204;6.590;2024-02-04T13:33:53;101607.91;;;22.03;50.31
67038;BME280;53940;53.204;6.590;2024-02-04T13:36:54;101611.41;;;22.03;50.16
67038;BME280;53940;53.204;6.590;2024-02-04T13:39:54;101624.72;;;22.05;50.17
67038;BME280;53940;53.204;6.590;2024-02-04T13:42:54;101622.03;;;22.05;50.56
67038;BME280;53940;53.204;6.590;2024-02-04T13:45:55;101606.63;;;22.07;50.53
67038;BME280;53940;53.204;6.590;2024-02-04T13:48:55;101591.28;;;22.09;50.38
67038;BME280;53940;53.204;6.590;2024-02-04T13:51:55;101582.22;;;22.10;50.37
67038;BME280;53940;53.204;6.590;2024-02-04T13:54:56;101583.94;;;22.11;50.43
67038;BME280;53940;53.204;6.590;2024-02-04T13:57:56;101591.97;;;22.11;50.49
67038;BME280;53940;53.204;6.590;2024-02-04T14:00:56;101584.91;;;22.10;50.44
67038;BME280;53940;53.204;6.590;2024-02-04T14:03:57;101596.50;;;22.11;50.41
67038;BME280;53940;53.204;6.590;2024-02-04T14:06:57;101587.59;;;22.10;50.35
67038;BME280;53940;53.204;6.590;2024-02-04T14:09:58;101575.16;;;22.09;50.25
67038;BME280;53940;53.204;6.590;2024-02-04T14:12:58;101570.78;;;22.08;50.19
67038;BME280;53940;53.204;6.590;2024-02-04T14:15:58;101571.63;;;22.08;50.12
67038;BME280;53940;53.204;6.590;2024-02-04T14:18:59;101576.00;;;22.10;50.26
67038;BME280;53940;53.204;6.590;2024-02-04T14:21:59;101582.22;;;22.10;50.21
67038;BME280;53940;53.204;6.590;2024-02-04T14:24:59;101591.28;;;22.09;50.29
67038;BME280;53940;53.204;6.590;2024-02-04T14:28:00;101580.53;;;22.09;50.32
67038;BME280;53940;53.204;6.590;2024-02-04T14:31:00;101580.53;;;22.09;50.18
67038;BME280;53940;53.204;6.590;2024-02-04T14:34:00;101571.50;;;22.10;50.37
67038;BME280;53940;53.204;6.590;2024-02-04T14:37:01;101567.09;;;22.09;50.43
67038;BME280;53940;53.204;6.590;2024-02-04T14:40:02;101572.47;;;22.09;50.45
67038;BME280;53940;53.204;6.590;2024-02-04T14:43:04;101560.88;;;22.08;50.51
67038;BME280;53940;53.204;6.590;2024-02-04T14:46:05;101562.56;;;22.10;50.66
67038;BME280;53940;53.204;6.590;2024-02-04T14:49:05;101553.69;;;22.09;50.59
67038;BME280;53940;53.204;6.590;2024-02-04T14:52:06;101551.13;;;22.07;50.27
67038;BME280;53940;53.204;6.590;2024-02-04T14:55:06;101552.94;;;22.07;50.59
67038;BME280;53940;53.204;6.590;2024-02-04T14:58:10;101550.25;;;22.07;50.44
67038;BME280;53940;53.204;6.590;2024-02-04T15:01:10;101561.00;;;22.07;50.65
67038;BME280;53940;53.204;6.590;2024-02-04T15:04:10;101552.94;;;22.07;50.34
67038;BME280;53940;53.204;6.590;2024-02-04T15:07:12;101565.53;;;22.06;50.74
67038;BME280;53940;53.204;6.590;2024-02-04T15:10:12;101562.00;;;22.06;50.53
67038;BME280;53940;53.204;6.590;2024-02-04T15:13:13;101546.88;;;22.05;50.56
67038;BME280;53940;53.204;6.590;2024-02-04T15:16:14;101546.88;;;22.05;50.47
67038;BME280;53940;53.204;6.590;2024-02-04T15:19:14;101555.91;;;22.04;50.54
67038;BME280;53940;53.204;6.590;2024-02-04T15:22:15;101552.25;;;22.05;50.67
67038;BME280;53940;53.204;6.590;2024-02-04T15:25:16;101559.47;;;22.04;50.65
67038;BME280;53940;53.204;6.590;2024-02-04T15:28:17;101561.28;;;22.04;50.76
67038;BME280;53940;53.204;6.590;2024-02-04T15:31:18;101550.53;;;22.04;50.69
67038;BME280;53940;53.204;6.590;2024-02-04T15:34:19;101537.13;;;22.04;50.54
67038;BME280;53940;53.204;6.590;2024-02-04T15:37:19;101531.75;;;22.04;50.40
67038;BME280;53940;53.204;6.590;2024-02-04T15:40:20;101525.69;;;22.02;50.31
67038;BME280;53940;53.204;6.590;2024-02-04T15:43:22;101531.06;;;22.02;50.30
67038;BME280;53940;53.204;6.590;2024-02-04T15:46:23;101526.63;;;22.01;50.59
67038;BME280;53940;53.204;6.590;2024-02-04T15:49:24;101530.19;;;22.01;50.52
67038;BME280;53940;53.204;6.590;2024-02-04T15:52:24;101518.59;;;22.01;50.43